Time;durP1;ratioP1;P1;durP2;ratioP2;P2;SDS_P1;SDS_P2;PMS_P1;PMS_P2;Temp;Humidity;BMP_temperature;BMP_pressure;BME280_temperature;BME280_humidity;BME280_pressure;Samples;Min_cycle;Max_cycle;Signal;HPM_P1;HPM_P2
2022/09/27 00:01:04;;;;;;;8.00;5.47;;;16.60;66.60;;;;;;5092711;28;20502;-78
2022/09/27 00:03:30;;;;;;;6.47;4.95;;;16.60;66.50;;;;;;5091418;28;20028;-78
2022/09/27 00:06:14;;;;;;;7.32;4.38;;;16.60;66.50;;;;;;5092795;28;20020;-79
2022/09/27 00:08:40;;;;;;;7.55;5.10;;;16.50;66.60;;;;;;5092516;28;20097;-79
2022/09/27 00:11:13;;;;;;;9.40;4.72;;;16.60;66.60;;;;;;5092820;28;20035;-78
2022/09/27 00:13:39;;;;;;;6.15;4.22;;;16.60;66.70;;;;;;5092721;28;20424;-78
2022/09/27 00:16:05;;;;;;;4.70;3.63;;;16.50;66.60;;;;;;5091877;28;20063;-78
2022/09/27 00:18:32;;;;;;;8.32;5.30;;;16.60;66.70;;;;;;5092925;28;20473;-79
2022/09/27 00:21:12;;;;;;;12.20;6.07;;;16.50;66.60;;;;;;5091967;28;20032;-78
2022/09/27 00:23:38;;;;;;;8.10;4.63;;;16.50;66.60;;;;;;5091978;28;20047;-78
2022/09/27 00:26:05;;;;;;;5.43;3.55;;;16.50;66.60;;;;;;5092154;28;20507;-77
2022/09/27 00:28:32;;;;;;;6.00;4.10;;;16.50;66.60;;;;;;5092371;28;20031;-78
2022/09/27 00:30:58;;;;;;;5.63;3.88;;;16.50;66.60;;;;;;5092317;28;20024;-77
2022/09/27 00:33:25;;;;;;;5.28;3.20;;;16.50;66.70;;;;;;5091523;28;20027;-78
2022/09/27 00:35:51;;;;;;;4.65;3.40;;;16.50;66.70;;;;;;5091672;28;20042;-78
2022/09/27 00:38:17;;;;;;;4.95;3.47;;;16.40;66.70;;;;;;5091818;28;20032;-78
2022/09/27 00:40:43;;;;;;;5.93;3.22;;;16.40;66.80;;;;;;5092159;28;20020;-77
2022/09/27 00:43:22;;;;;;;6.55;3.88;;;16.40;66.80;;;;;;5090514;28;20036;-79
2022/09/27 00:46:06;;;;;;;4.22;3.20;;;16.40;67.70;;;;;;5091965;28;20079;-78
2022/09/27 00:48:35;;;;;;;3.25;2.70;;;16.40;66.90;;;;;;5090764;28;20440;-78
2022/09/27 00:51:04;;;;;;;3.45;3.08;;;16.40;66.90;;;;;;5091667;28;20028;-77
2022/09/27 00:53:35;;;;;;;4.03;2.95;;;16.40;67.00;;;;;;5092120;28;20028;-78
2022/09/27 00:56:09;;;;;;;4.45;3.05;;;16.40;67.00;;;;;;5092014;28;20028;-78
2022/09/27 00:58:38;;;;;;;3.33;2.85;;;16.30;67.00;;;;;;5104405;28;20103;-78
2022/09/27 01:01:09;;;;;;;5.68;2.58;;;16.40;67.00;;;;;;5110952;28;20073;-77
2022/09/27 01:03:51;;;;;;;4.70;2.55;;;16.30;67.10;;;;;;5093645;28;20115;-78
2022/09/27 01:06:20;;;;;;;2.97;2.60;;;16.30;67.10;;;;;;5091825;28;20024;-77
2022/09/27 01:08:45;;;;;;;2.80;2.42;;;16.30;67.10;;;;;;5091747;28;20076;-79
2022/09/27 01:11:34;;;;;;;4.30;2.30;;;16.30;67.10;;;;;;5091837;28;20099;-78
2022/09/27 01:14:25;;;;;;;3.58;2.53;;;16.30;67.10;;;;;;5098100;28;20542;-78
2022/09/27 01:17:26;;;;;;;2.97;2.38;;;16.30;67.10;;;;;;5091742;28;20103;-78
2022/09/27 01:20:31;;;;;;;6.32;2.40;;;16.30;67.00;;;;;;5070765;28;20032;-78
2022/09/27 01:23:28;;;;;;;;;;;16.30;67.10;;;;;;5090807;28;20046;-78
2022/09/27 01:26:35;;;;;;;4.32;2.38;;;16.30;66.70;;;;;;5091744;28;19920;-78
2022/09/27 01:29:12;;;;;;;3.05;2.38;;;16.30;66.80;;;;;;5087904;28;20032;-78
2022/09/27 01:31:44;;;;;;;3.42;2.47;;;16.30;66.80;;;;;;5095519;28;20095;-77
2022/09/27 01:34:44;;;;;;;7.18;2.75;;;16.30;67.00;;;;;;5100237;28;20028;-78
2022/09/27 01:37:25;;;;;;;4.15;2.53;;;16.30;67.20;;;;;;5095400;28;20043;-78
2022/09/27 01:40:31;;;;;;;3.03;2.50;;;16.30;67.10;;;;;;5095282;28;20107;-78
2022/09/27 01:43:20;;;;;;;3.72;2.78;;;16.30;67.20;;;;;;5095278;28;20035;-78
2022/09/27 01:46:04;;;;;;;3.17;2.58;;;16.30;67.20;;;;;;5090637;28;20040;-77
2022/09/27 01:48:45;;;;;;;6.30;3.03;;;16.30;67.30;;;;;;5091842;28;20024;-78
2022/09/27 01:51:38;;;;;;;5.13;2.97;;;16.30;67.30;;;;;;5095062;28;20389;-78
2022/09/27 01:54:06;;;;;;;3.85;2.50;;;16.30;67.30;;;;;;5093955;28;20222;-77
2022/09/27 01:56:40;;;;;;;4.10;2.95;;;16.30;67.30;;;;;;5094985;28;20016;-78
2022/09/27 01:59:24;;;;;;;3.22;2.70;;;16.30;67.40;;;;;;5093787;28;20024;-78
2022/09/27 02:01:51;;;;;;;5.22;2.97;;;16.30;67.40;;;;;;5091648;28;20085;-78
2022/09/27 02:04:23;;;;;;;5.20;3.00;;;16.30;67.40;;;;;;5088023;28;20020;-78
2022/09/27 02:06:58;;;;;;;3.95;3.17;;;16.30;67.40;;;;;;5085434;28;20036;-78
2022/09/27 02:09:58;;;;;;;4.18;2.83;;;16.30;67.40;;;;;;5085408;28;20039;-78
2022/09/27 02:12:30;;;;;;;5.50;2.97;;;16.30;67.40;;;;;;5082834;28;20025;-77
2022/09/27 02:15:05;;;;;;;4.90;3.63;;;16.30;67.40;;;;;;5074561;28;20099;-78
2022/09/27 02:17:46;;;;;;;7.72;3.13;;;16.30;67.30;;;;;;5078491;28;20143;-78
2022/09/27 02:20:37;;;;;;;3.70;3.10;;;16.30;67.10;;;;;;5103350;28;20044;-78
2022/09/27 02:23:28;;;;;;;4.13;3.13;;;16.30;67.00;;;;;;5093161;28;20381;-78
2022/09/27 02:26:02;;;;;;;4.28;3.28;;;16.30;67.10;;;;;;5092900;28;20170;-77
2022/09/27 02:28:41;;;;;;;4.20;3.22;;;16.30;67.20;;;;;;5094494;28;20016;-78
2022/09/27 02:31:07;;;;;;;10.00;3.10;;;16.30;67.10;;;;;;5094399;28;20104;-77
2022/09/27 02:33:46;;;;;;;7.88;3.20;;;16.30;67.20;;;;;;5093126;28;20024;-78
2022/09/27 02:36:12;;;;;;;4.57;3.35;;;16.20;67.40;;;;;;5094360;28;20042;-78
2022/09/27 02:38:39;;;;;;;3.83;3.42;;;16.30;67.40;;;;;;5094608;28;20020;-78
2022/09/27 02:41:13;;;;;;;4.82;3.35;;;16.20;67.40;;;;;;5092789;28;20043;-78
2022/09/27 02:43:39;;;;;;;5.75;3.40;;;16.20;67.30;;;;;;5092924;28;20085;-78
2022/09/27 02:46:16;;;;;;;3.47;2.83;;;16.20;67.30;;;;;;5092441;28;20509;-78
2022/09/27 02:49:09;;;;;;;4.85;3.35;;;16.20;67.40;;;;;;5093719;28;20032;-78
2022/09/27 02:51:53;;;;;;;5.50;2.75;;;16.20;67.50;;;;;;5089452;28;20344;-78
2022/09/27 02:54:33;;;;;;;6.30;3.20;;;16.20;67.40;;;;;;5093997;28;20508;-78
2022/09/27 02:57:16;;;;;;;4.57;3.13;;;16.20;67.40;;;;;;5093756;28;20035;-78
2022/09/27 03:00:04;;;;;;;5.75;3.50;;;16.20;67.50;;;;;;5093800;28;20035;-78
2022/09/27 03:02:58;;;;;;;3.90;3.15;;;16.20;67.40;;;;;;5092419;28;20377;-78
2022/09/27 03:05:32;;;;;;;5.47;2.63;;;16.20;67.40;;;;;;5074756;28;20398;-78
2022/09/27 03:07:58;;;;;;;4.40;3.42;;;16.20;67.50;;;;;;5092461;28;20047;-78
2022/09/27 03:10:26;;;;;;;8.32;3.55;;;16.20;67.40;;;;;;5109269;28;20028;-78
2022/09/27 03:12:53;;;;;;;3.70;3.05;;;16.20;67.50;;;;;;5092197;28;20024;-78
2022/09/27 03:15:19;;;;;;;5.20;3.55;;;16.20;67.60;;;;;;5091569;28;20046;-78
2022/09/27 03:17:45;;;;;;;7.82;3.03;;;16.20;67.60;;;;;;5089676;28;20080;-78
2022/09/27 03:20:11;;;;;;;4.65;3.53;;;16.20;67.60;;;;;;5092651;28;20028;-78
2022/09/27 03:22:37;;;;;;;8.10;4.05;;;16.20;67.70;;;;;;5091962;28;20035;-79
2022/09/27 03:25:05;;;;;;;5.88;4.00;;;16.20;67.70;;;;;;5093293;28;20020;-77
2022/09/27 03:27:31;;;;;;;7.00;4.10;;;16.20;67.70;;;;;;5091812;28;20032;-77
2022/09/27 03:29:58;;;;;;;5.38;4.00;;;16.20;67.70;;;;;;5091965;28;20051;-78
2022/09/27 03:32:25;;;;;;;6.30;3.38;;;16.20;67.60;;;;;;5092520;28;20023;-78
2022/09/27 03:34:50;;;;;;;5.80;3.55;;;16.20;67.70;;;;;;5088967;28;20032;-78
2022/09/27 03:37:16;;;;;;;6.82;4.38;;;16.20;67.70;;;;;;5082590;28;20092;-78
2022/09/27 03:39:42;;;;;;;5.10;3.92;;;16.20;67.60;;;;;;5090023;28;20064;-78
2022/09/27 03:42:08;;;;;;;6.07;4.40;;;16.20;67.60;;;;;;5092892;28;20481;-78
2022/09/27 03:44:34;;;;;;;4.90;3.65;;;16.20;67.60;;;;;;5088754;28;20077;-78
2022/09/27 03:46:59;;;;;;;6.18;4.07;;;16.20;67.70;;;;;;5092657;28;20097;-78
2022/09/27 03:49:25;;;;;;;8.57;4.80;;;16.20;67.60;;;;;;5092572;28;20042;-77
2022/09/27 03:51:51;;;;;;;5.93;3.95;;;16.20;67.60;;;;;;5085114;28;20094;-78
2022/09/27 03:54:17;;;;;;;5.95;4.20;;;16.20;67.50;;;;;;5087379;28;20024;-78
2022/09/27 03:56:42;;;;;;;6.53;4.40;;;16.20;67.60;;;;;;5108371;28;20077;-78
2022/09/27 03:59:11;;;;;;;5.28;4.28;;;16.20;67.60;;;;;;5092578;28;20051;-78
2022/09/27 04:01:37;;;;;;;4.90;3.95;;;16.20;67.70;;;;;;5092663;28;20020;-78
2022/09/27 04:04:04;;;;;;;7.32;4.10;;;16.20;67.70;;;;;;5092259;28;20412;-77
2022/09/27 04:06:30;;;;;;;5.40;3.88;;;16.20;68.50;;;;;;5092469;28;20121;-78
2022/09/27 04:08:56;;;;;;;6.45;4.18;;;16.20;67.80;;;;;;5092415;28;20082;-78
2022/09/27 04:11:25;;;;;;;6.22;4.43;;;16.20;67.90;;;;;;5092356;28;20481;-78
2022/09/27 04:13:50;;;;;;;10.55;4.88;;;16.20;67.90;;;;;;5090857;28;20031;-78
2022/09/27 04:16:16;;;;;;;9.55;5.00;;;16.20;67.90;;;;;;5075335;28;20024;-78
2022/09/27 04:18:42;;;;;;;7.32;4.80;;;16.20;67.80;;;;;;5092067;28;20028;-77
2022/09/27 04:21:08;;;;;;;8.38;5.70;;;16.20;67.70;;;;;;5090789;28;20500;-78
2022/09/27 04:23:35;;;;;;;6.28;4.70;;;16.20;67.70;;;;;;5091148;28;20036;-78
2022/09/27 04:26:01;;;;;;;9.02;5.35;;;16.20;67.70;;;;;;5092161;28;20020;-78
2022/09/27 04:28:28;;;;;;;7.75;4.95;;;16.20;67.70;;;;;;5107740;28;20081;-78
2022/09/27 04:30:55;;;;;;;7.05;4.82;;;16.20;67.60;;;;;;5085645;28;20073;-78
2022/09/27 04:33:20;;;;;;;6.25;4.53;;;16.20;67.60;;;;;;5092218;28;20111;-78
2022/09/27 04:38:31;;;;;;;10.05;5.50;;;16.20;67.50;;;;;;5081146;28;20035;-78
2022/09/27 04:41:00;;;;;;;7.72;5.63;;;16.20;67.40;;;;;;5092171;28;20024;-78
2022/09/27 04:43:26;;;;;;;8.05;5.80;;;16.20;67.50;;;;;;5092097;28;20103;-78
2022/09/27 04:45:52;;;;;;;7.72;4.88;;;16.20;67.40;;;;;;5091704;28;20040;-78
2022/09/27 04:48:18;;;;;;;15.27;5.80;;;16.20;67.50;;;;;;5107851;28;20022;-78
2022/09/27 04:50:44;;;;;;;9.98;6.15;;;16.20;67.50;;;;;;5107853;28;20105;-77
2022/09/27 04:53:15;;;;;;;6.55;4.80;;;16.20;67.50;;;;;;5090394;28;20027;-78
2022/09/27 04:55:46;;;;;;;7.18;5.20;;;16.20;67.40;;;;;;5091846;28;20569;-77
2022/09/27 04:58:12;;;;;;;9.60;6.05;;;16.20;67.50;;;;;;5090552;28;20397;-77
2022/09/27 05:00:37;;;;;;;10.57;5.93;;;16.20;67.50;;;;;;5091712;28;20032;-78
2022/09/27 05:03:03;;;;;;;7.97;5.47;;;16.20;67.60;;;;;;5094092;28;20032;-78
2022/09/27 05:05:29;;;;;;;10.43;6.40;;;16.20;67.50;;;;;;5094116;28;20020;-78
2022/09/27 05:07:55;;;;;;;10.52;6.30;;;16.20;67.60;;;;;;5091392;28;20374;-78
2022/09/27 05:10:20;;;;;;;10.93;7.03;;;16.20;67.40;;;;;;5109397;28;20028;-78
2022/09/27 05:12:46;;;;;;;12.07;7.47;;;16.20;67.50;;;;;;5091520;28;20066;-78
2022/09/27 05:15:12;;;;;;;9.48;6.88;;;16.20;68.00;;;;;;5085913;28;20028;-78
2022/09/27 05:17:37;;;;;;;17.58;8.15;;;16.20;67.70;;;;;;5087897;28;20032;-78
2022/09/27 05:20:04;;;;;;;14.95;8.20;;;16.10;68.00;;;;;;5084950;28;20035;-78
2022/09/27 05:22:29;;;;;;;15.63;8.05;;;16.00;68.30;;;;;;5089208;28;20579;-78
2022/09/27 05:24:55;;;;;;;13.48;7.60;;;16.00;68.60;;;;;;5095445;28;20036;-77
2022/09/27 05:27:21;;;;;;;15.50;7.28;;;16.00;68.80;;;;;;5094442;28;20110;-77
2022/09/27 05:29:47;;;;;;;15.27;6.47;;;15.90;68.80;;;;;;5095547;28;20027;-77
2022/09/27 05:32:14;;;;;;;11.32;6.00;;;15.80;68.80;;;;;;5091233;28;20381;-78
2022/09/27 05:34:40;;;;;;;8.02;5.32;;;15.80;68.90;;;;;;5095576;28;20415;-77
2022/09/27 05:37:06;;;;;;;9.95;5.60;;;15.80;69.00;;;;;;5088949;28;20437;-78
2022/09/27 05:39:32;;;;;;;12.80;5.35;;;15.80;69.20;;;;;;5092613;28;20052;-78
2022/09/27 05:41:58;;;;;;;8.77;4.78;;;15.70;69.50;;;;;;5084545;28;20103;-78
2022/09/27 05:44:27;;;;;;;6.95;4.35;;;15.70;70.70;;;;;;5084549;28;20095;-78
2022/09/27 05:46:53;;;;;;;10.43;4.30;;;15.60;70.70;;;;;;5090803;28;20071;-77
2022/09/27 05:49:21;;;;;;;7.78;5.13;;;15.60;70.70;;;;;;5088280;28;20083;-78
2022/09/27 05:51:47;;;;;;;7.13;4.57;;;15.50;70.60;;;;;;5081882;28;20027;-78
2022/09/27 05:54:13;;;;;;;10.13;4.30;;;15.50;70.70;;;;;;5085434;28;20024;-79
2022/09/27 05:56:39;;;;;;;6.93;4.00;;;15.50;71.00;;;;;;5084973;28;20086;-78
2022/09/27 05:59:05;;;;;;;9.82;4.00;;;15.40;71.90;;;;;;5086753;28;20111;-77
2022/09/27 06:01:30;;;;;;;4.78;3.38;;;15.40;71.80;;;;;;5085459;28;20021;-76
2022/09/27 06:03:56;;;;;;;7.07;3.42;;;15.40;71.90;;;;;;5086406;28;20025;-75
2022/09/27 06:06:22;;;;;;;6.88;3.70;;;15.40;72.10;;;;;;5083724;28;20110;-74
2022/09/27 06:08:48;;;;;;;5.35;3.50;;;15.40;72.30;;;;;;5085227;28;20023;-74
2022/09/27 06:11:14;;;;;;;5.65;3.15;;;15.40;72.30;;;;;;5083500;28;20044;-75
2022/09/27 06:13:41;;;;;;;4.72;3.38;;;15.40;72.40;;;;;;5083329;28;20039;-75
2022/09/27 06:16:09;;;;;;;6.10;3.50;;;15.40;72.40;;;;;;5085590;28;20035;-76
2022/09/27 06:18:36;;;;;;;6.35;3.30;;;15.40;72.40;;;;;;5088170;28;20069;-76
2022/09/27 06:21:03;;;;;;;5.47;3.47;;;15.40;72.30;;;;;;5086459;28;20501;-73
2022/09/27 06:23:33;;;;;;;4.50;3.08;;;15.40;72.40;;;;;;5088562;28;20374;-74
2022/09/27 06:26:04;;;;;;;5.00;3.40;;;15.40;72.50;;;;;;5082201;28;20021;-75
2022/09/27 06:28:30;;;;;;;3.92;3.05;;;15.40;72.70;;;;;;5085030;28;20417;-74
2022/09/27 06:30:59;;;;;;;5.47;3.92;;;15.40;72.80;;;;;;5094174;28;20028;-74
2022/09/27 06:33:26;;;;;;;5.85;3.40;;;15.50;72.90;;;;;;5095291;28;20114;-75
2022/09/27 06:35:53;;;;;;;6.00;3.72;;;15.50;72.90;;;;;;5095317;28;20107;-75
2022/09/27 06:38:20;;;;;;;13.30;3.30;;;15.50;72.80;;;;;;5095254;28;20103;-74
2022/09/27 06:40:46;;;;;;;5.80;3.55;;;15.60;72.70;;;;;;5095349;28;20042;-76
2022/09/27 06:43:14;;;;;;;5.68;3.95;;;15.60;73.60;;;;;;5093967;28;20092;-78
2022/09/27 06:45:41;;;;;;;7.78;3.88;;;15.60;72.80;;;;;;5094574;28;20123;-77
2022/09/27 06:48:09;;;;;;;8.55;4.88;;;15.70;72.60;;;;;;5099408;28;20481;-73
2022/09/27 06:50:37;;;;;;;5.78;3.85;;;15.70;72.30;;;;;;5101718;28;20086;-76
2022/09/27 06:53:04;;;;;;;7.40;4.38;;;15.70;71.90;;;;;;5093524;28;20032;-76
2022/09/27 06:55:30;;;;;;;6.65;3.83;;;15.70;71.80;;;;;;5095098;28;20020;-73
2022/09/27 07:00:42;;;;;;;8.20;3.95;;;15.80;71.90;;;;;;5095220;28;20039;-74
2022/09/27 07:03:13;;;;;;;6.60;4.00;;;15.80;72.10;;;;;;5094921;28;20039;-77
2022/09/27 07:05:43;;;;;;;5.07;3.65;;;15.80;72.00;;;;;;5094081;28;20073;-75
2022/09/27 07:08:13;;;;;;;4.57;3.35;;;15.90;72.00;;;;;;5094882;28;20035;-75
2022/09/27 07:10:39;;;;;;;5.10;3.03;;;15.90;72.00;;;;;;5099571;28;20068;-78
2022/09/27 07:13:07;;;;;;;4.75;3.22;;;16.00;72.10;;;;;;5115747;28;20068;-79
2022/09/27 07:15:37;;;;;;;10.73;4.13;;;16.10;72.30;;;;;;5113857;28;20024;-78
2022/09/27 07:18:04;;;;;;;3.22;2.70;;;16.10;72.10;;;;;;5095458;28;20059;-77
2022/09/27 07:20:31;;;;;;;5.78;2.65;;;16.10;71.90;;;;;;5094413;28;20028;-77
2022/09/27 07:22:57;;;;;;;9.68;3.40;;;16.20;71.40;;;;;;5094577;28;20027;-75
2022/09/27 07:25:24;;;;;;;4.10;3.13;;;16.30;71.10;;;;;;5093711;28;20056;-75
2022/09/27 07:27:53;;;;;;;3.80;2.95;;;16.30;71.40;;;;;;5092804;28;20432;-77
2022/09/27 07:30:20;;;;;;;5.28;3.17;;;16.40;71.40;;;;;;5094027;28;20286;-77
2022/09/27 07:32:46;;;;;;;4.40;3.25;;;16.50;71.30;;;;;;5093442;28;20043;-78
2022/09/27 07:35:14;;;;;;;3.92;3.00;;;16.60;71.30;;;;;;5094310;28;20474;-73
2022/09/27 07:37:40;;;;;;;3.40;3.03;;;16.60;70.80;;;;;;5093839;28;20023;-77
2022/09/27 07:40:08;;;;;;;4.10;2.70;;;16.70;70.90;;;;;;5088625;28;20099;-75
2022/09/27 07:42:37;;;;;;;5.45;3.03;;;16.80;69.90;;;;;;5102281;28;20030;-77
2022/09/27 07:45:05;;;;;;;5.22;3.10;;;16.80;69.70;;;;;;5111603;28;20073;-76
2022/09/27 07:47:32;;;;;;;3.85;2.60;;;16.90;69.00;;;;;;5093939;28;20024;-78
2022/09/27 07:49:57;;;;;;;3.85;2.72;;;16.90;68.90;;;;;;5099262;28;20123;-73
2022/09/27 07:52:23;;;;;;;3.65;2.83;;;16.90;69.10;;;;;;5103751;28;20098;-76
2022/09/27 07:54:49;;;;;;;3.95;3.20;;;16.90;69.20;;;;;;5093666;28;20110;-75
2022/09/27 07:57:15;;;;;;;5.80;3.97;;;17.00;68.80;;;;;;5110106;28;20400;-76
2022/09/27 07:59:41;;;;;;;5.93;3.78;;;17.00;68.90;;;;;;5113843;28;20032;-74
2022/09/27 08:02:15;;;;;;;7.53;3.53;;;17.00;68.90;;;;;;5106305;28;20381;-77
2022/09/27 08:04:46;;;;;;;;;;;17.00;68.10;;;;;;5094439;28;20032;-75
2022/09/27 08:07:13;;;;;;;4.00;3.03;;;17.10;68.50;;;;;;5094102;28;20349;-76
2022/09/27 08:09:38;;;;;;;5.03;2.97;;;17.10;67.40;;;;;;5096669;28;20438;-74
2022/09/27 08:12:04;;;;;;;13.73;3.72;;;17.10;66.60;;;;;;5112278;28;20059;-73
2022/09/27 08:14:30;;;;;;;4.78;3.10;;;17.00;66.10;;;;;;5105532;28;20055;-75
2022/09/27 08:16:56;;;;;;;4.80;2.65;;;17.00;66.60;;;;;;5098268;28;20024;-78
2022/09/27 08:19:22;;;;;;;5.20;2.42;;;17.00;66.20;;;;;;5092941;28;20032;-76
2022/09/27 08:21:50;;;;;;;5.30;2.67;;;17.00;66.80;;;;;;5093876;28;20478;-77
2022/09/27 08:24:16;;;;;;;5.57;2.35;;;17.00;67.20;;;;;;5090368;28;20393;-77
2022/09/27 08:26:42;;;;;;;7.93;2.83;;;17.10;67.30;;;;;;5093475;28;20024;-76
2022/09/27 08:29:08;;;;;;;5.65;2.17;;;17.10;67.10;;;;;;5090442;28;20028;-76
2022/09/27 08:31:34;;;;;;;5.47;2.17;;;17.20;67.30;;;;;;5093114;28;20023;-75
2022/09/27 08:34:00;;;;;;;8.55;2.25;;;17.20;66.70;;;;;;5093134;28;20477;-78
2022/09/27 08:36:27;;;;;;;4.72;2.20;;;17.20;66.30;;;;;;5092838;28;20020;-75
2022/09/27 08:38:56;;;;;;;2.85;1.73;;;17.20;66.60;;;;;;5091430;28;20034;-76
2022/09/27 08:42:00;;;;;;;5.00;1.90;;;17.20;66.20;;;;;;5091849;28;20109;-76
2022/09/27 08:44:42;;;;;;;4.47;2.00;;;17.20;66.70;;;;;;5093054;28;20028;-78
2022/09/27 08:47:28;;;;;;;3.70;1.95;;;17.30;66.80;;;;;;5092960;28;20047;-74
2022/09/27 08:50:01;;;;;;;2.97;2.00;;;17.40;66.70;;;;;;5092912;28;20470;-75
2022/09/27 08:52:41;;;;;;;5.80;1.83;;;17.50;67.60;;;;;;5092926;28;20503;-76
2022/09/27 08:55:27;;;;;;;5.22;2.50;;;17.60;68.10;;;;;;5092992;28;20427;-73
2022/09/27 08:57:56;;;;;;;5.05;1.95;;;17.70;67.90;;;;;;5092867;28;20038;-78
2022/09/27 09:00:22;;;;;;;2.80;2.15;;;17.80;67.10;;;;;;5091770;28;20346;-74
2022/09/27 09:02:48;;;;;;;4.63;2.63;;;17.90;67.20;;;;;;5092893;28;20099;-75
2022/09/27 09:05:22;;;;;;;4.45;2.78;;;17.90;66.90;;;;;;5092983;28;20047;-76
2022/09/27 09:08:15;;;;;;;9.65;2.25;;;18.00;66.80;;;;;;5092892;28;20461;-75
2022/09/27 09:13:53;;;;;;;4.75;2.33;;;18.10;65.50;;;;;;5092872;28;20070;-74
2022/09/27 09:16:37;;;;;;;7.93;4.13;;;18.10;66.00;;;;;;5093037;28;20028;-76
2022/09/27 09:19:33;;;;;;;6.60;4.00;;;18.20;65.70;;;;;;5092922;28;20113;-74
2022/09/27 09:22:19;;;;;;;3.55;2.30;;;18.20;65.50;;;;;;5072645;28;20033;-76
2022/09/27 09:25:12;;;;;;;4.60;2.30;;;18.30;65.70;;;;;;5072593;28;20097;-75
2022/09/27 09:27:53;;;;;;;6.40;1.92;;;18.30;65.60;;;;;;5072527;28;20423;-74
2022/09/27 09:30:27;;;;;;;3.45;2.20;;;18.40;65.70;;;;;;5072551;28;20028;-75
2022/09/27 09:33:34;;;;;;;13.40;2.65;;;18.50;66.10;;;;;;5072437;28;20379;-76
2022/09/27 09:36:08;;;;;;;2.58;1.83;;;18.60;66.40;;;;;;5071276;28;20033;-73
2022/09/27 09:38:33;;;;;;;;;;;18.70;66.50;;;;;;5072815;28;20044;-77
2022/09/27 09:41:19;;;;;;;4.72;2.42;;;18.80;66.10;;;;;;5072402;28;19970;-74
2022/09/27 09:43:54;;;;;;;3.17;1.85;;;18.90;63.60;;;;;;5072058;28;20106;-75
2022/09/27 09:46:38;;;;;;;2.33;1.77;;;18.90;63.30;;;;;;5070903;28;20049;-76
2022/09/27 09:49:21;;;;;;;2.20;1.50;;;18.90;63.90;;;;;;5072957;28;20377;-75
2022/09/27 09:51:58;;;;;;;2.63;1.70;;;19.00;64.30;;;;;;5074866;28;20130;-75
2022/09/27 09:54:35;;;;;;;1.95;1.58;;;19.10;64.60;;;;;;5074905;28;20029;-74
2022/09/27 09:57:15;;;;;;;4.70;1.58;;;19.30;63.80;;;;;;5076063;28;20020;-74
2022/09/27 09:59:44;;;;;;;2.45;1.50;;;19.40;61.70;;;;;;5075963;28;20017;-76
2022/09/27 10:02:31;;;;;;;5.05;1.40;;;19.40;60.70;;;;;;5075771;28;20031;-75
2022/09/27 10:04:57;;;;;;;3.63;1.58;;;19.50;60.60;;;;;;5075940;28;20025;-75
2022/09/27 10:07:25;;;;;;;1.40;0.93;;;19.40;58.80;;;;;;5075968;28;20047;-76
2022/09/27 10:09:54;;;;;;;1.88;1.00;;;19.50;59.70;;;;;;5074573;28;20027;-76
2022/09/27 10:12:20;;;;;;;0.85;0.68;;;19.60;59.20;;;;;;5075636;28;20470;-77
2022/09/27 10:14:48;;;;;;;2.50;1.00;;;19.70;60.50;;;;;;5075631;28;20096;-77
2022/09/27 10:17:18;;;;;;;4.45;1.20;;;19.80;58.20;;;;;;5074412;28;20038;-77
2022/09/27 10:19:47;;;;;;;4.88;0.70;;;20.00;57.60;;;;;;5078748;28;20032;-78
2022/09/27 10:22:18;;;;;;;2.45;0.80;;;20.00;55.20;;;;;;5095445;28;20036;-76
2022/09/27 10:25:00;;;;;;;2.25;1.02;;;19.90;56.60;;;;;;5111446;28;20359;-78
2022/09/27 10:27:28;;;;;;;2.40;0.73;;;19.90;56.10;;;;;;5111300;28;20028;-78
2022/09/27 10:30:00;;;;;;;4.65;0.77;;;19.80;56.70;;;;;;5095612;28;20024;-77
2022/09/27 10:32:31;;;;;;;2.53;0.88;;;19.90;57.00;;;;;;5111191;28;20024;-77
2022/09/27 10:35:28;;;;;;;2.05;0.75;;;19.90;56.00;;;;;;5111351;28;20024;-78
2022/09/27 10:38:16;;;;;;;2.25;0.73;;;19.90;54.50;;;;;;5095470;28;20020;-76
2022/09/27 10:40:42;;;;;;;3.42;0.95;;;19.90;55.30;;;;;;5095474;28;20168;-77
2022/09/27 10:43:23;;;;;;;2.17;0.88;;;19.90;55.40;;;;;;5095464;28;20028;-77
2022/09/27 10:45:49;;;;;;;2.65;0.88;;;19.90;56.70;;;;;;5095060;28;20052;-77
2022/09/27 10:48:22;;;;;;;2.13;0.70;;;20.00;57.20;;;;;;5095278;28;20063;-78
2022/09/27 10:51:03;;;;;;;6.40;0.88;;;20.10;56.30;;;;;;5095241;28;20027;-78
2022/09/27 10:53:31;;;;;;;2.00;0.88;;;20.20;55.30;;;;;;5095125;28;20469;-78
2022/09/27 10:55:58;;;;;;;2.83;0.80;;;20.30;54.70;;;;;;5095188;28;20074;-78
2022/09/27 10:58:33;;;;;;;4.30;0.85;;;20.40;55.80;;;;;;5095128;28;20024;-77
2022/09/27 11:01:06;;;;;;;3.08;0.80;;;20.30;52.20;;;;;;5094899;28;20107;-77
2022/09/27 11:03:38;;;;;;;0.95;0.43;;;20.40;53.10;;;;;;5094920;28;20016;-77
2022/09/27 11:06:22;;;;;;;3.20;0.68;;;20.40;53.70;;;;;;5094973;28;20020;-77
2022/09/27 11:08:51;;;;;;;2.08;1.02;;;20.40;53.40;;;;;;5094851;28;20033;-78
2022/09/27 11:11:22;;;;;;;1.75;0.50;;;20.40;53.40;;;;;;5094823;28;20047;-77
2022/09/27 11:13:58;;;;;;;1.60;0.60;;;20.50;52.70;;;;;;5094655;28;20035;-77
2022/09/27 11:16:40;;;;;;;1.80;0.70;;;20.60;52.60;;;;;;5094734;28;20031;-77
2022/09/27 11:19:12;;;;;;;1.38;0.60;;;20.60;52.90;;;;;;5094718;28;20103;-78
2022/09/27 11:21:50;;;;;;;2.25;0.70;;;20.70;52.50;;;;;;5094247;28;20119;-77
2022/09/27 11:24:37;;;;;;;2.85;0.60;;;20.70;51.10;;;;;;5093309;28;20366;-77
2022/09/27 11:27:09;;;;;;;1.63;0.70;;;20.60;52.70;;;;;;5094456;28;20033;-77
2022/09/27 11:29:49;;;;;;;3.42;1.20;;;20.50;51.40;;;;;;5093163;28;20074;-77
2022/09/27 11:32:29;;;;;;;1.50;0.80;;;20.30;51.40;;;;;;5093101;28;20487;-77
2022/09/27 11:35:07;;;;;;;1.48;0.70;;;20.00;52.80;;;;;;5094284;28;20045;-77
2022/09/27 11:37:58;;;;;;;1.73;0.80;;;19.90;53.30;;;;;;5092933;28;20024;-78
2022/09/27 11:40:36;;;;;;;1.25;0.70;;;19.70;53.60;;;;;;5093002;28;20036;-77
2022/09/27 11:43:22;;;;;;;1.75;0.90;;;19.60;54.50;;;;;;5094241;28;20020;-77
2022/09/27 11:46:06;;;;;;;3.33;1.20;;;19.60;55.40;;;;;;5093944;28;20093;-77
2022/09/27 11:48:45;;;;;;;;;;;19.70;55.90;;;;;;5094582;28;20073;-77
2022/09/27 11:51:28;;;;;;;1.60;0.52;;;19.80;56.10;;;;;;5093826;28;19930;-77
2022/09/27 11:54:25;;;;;;;5.45;0.73;;;19.80;55.60;;;;;;5094037;28;20024;-77
2022/09/27 11:57:22;;;;;;;0.70;0.60;;;19.90;54.20;;;;;;5093951;28;20016;-77
2022/09/27 12:00:07;;;;;;;4.95;0.65;;;20.00;53.80;;;;;;5080046;28;20031;-77
2022/09/27 12:02:36;;;;;;;0.55;0.47;;;20.00;53.30;;;;;;5093911;28;20023;-77
2022/09/27 12:05:22;;;;;;;1.73;0.60;;;20.00;52.90;;;;;;5093735;28;20024;-78
2022/09/27 12:08:09;;;;;;;2.10;0.70;;;20.00;52.80;;;;;;5093754;28;20035;-77
2022/09/27 12:10:38;;;;;;;2.00;0.80;;;20.10;52.30;;;;;;5093816;28;20462;-78
2022/09/27 12:13:07;;;;;;;3.75;0.68;;;20.20;52.60;;;;;;5093195;28;20103;-77
2022/09/27 12:15:38;;;;;;;1.98;0.82;;;20.20;50.40;;;;;;5093648;28;20020;-78
2022/09/27 12:18:31;;;;;;;0.85;0.50;;;20.20;49.90;;;;;;5093567;28;20069;-77
2022/09/27 12:21:01;;;;;;;0.70;0.50;;;20.20;50.60;;;;;;5093347;28;20675;-77
2022/09/27 12:23:56;;;;;;;0.73;0.60;;;20.20;50.00;;;;;;5092293;28;20493;-78
2022/09/27 12:26:39;;;;;;;2.35;0.60;;;20.20;50.90;;;;;;5093507;28;20052;-77
2022/09/27 12:29:23;;;;;;;1.60;1.00;;;20.10;48.80;;;;;;5092045;28;20512;-77
2022/09/27 12:31:51;;;;;;;14.15;1.88;;;20.20;49.70;;;;;;5093363;28;20026;-78
2022/09/27 12:34:39;;;;;;;2.00;1.15;;;20.20;49.40;;;;;;5093288;28;20385;-77
2022/09/27 12:37:20;;;;;;;4.05;1.38;;;20.20;50.10;;;;;;5093376;28;20032;-77
2022/09/27 12:39:49;;;;;;;3.17;1.10;;;20.20;48.90;;;;;;5093424;28;20089;-78
2022/09/27 12:42:48;;;;;;;2.10;0.70;;;20.10;48.80;;;;;;5093313;28;20020;-77
2022/09/27 12:45:20;;;;;;;2.17;0.60;;;20.00;48.90;;;;;;5083715;28;20040;-78
2022/09/27 12:48:18;;;;;;;2.55;0.88;;;19.90;49.60;;;;;;5091859;28;20031;-79
2022/09/27 12:50:54;;;;;;;2.30;1.10;;;19.90;50.20;;;;;;5089724;28;20036;-77
2022/09/27 12:53:25;;;;;;;1.10;0.50;;;19.90;49.70;;;;;;5091658;28;20034;-77
2022/09/27 12:56:33;;;;;;;1.10;0.70;;;19.90;50.00;;;;;;5093146;28;20051;-77
2022/09/27 12:59:10;;;;;;;2.25;0.70;;;20.00;50.20;;;;;;5093061;28;20081;-77
2022/09/27 13:01:57;;;;;;;0.82;0.50;;;20.20;49.70;;;;;;5092889;28;20021;-77
2022/09/27 13:04:44;;;;;;;1.70;0.57;;;20.30;49.80;;;;;;5091706;28;20024;-77
2022/09/27 13:07:26;;;;;;;4.18;0.65;;;20.40;50.10;;;;;;5091560;28;20024;-78
2022/09/27 13:10:23;;;;;;;4.03;0.70;;;20.50;49.00;;;;;;5091735;28;20390;-77
2022/09/27 13:12:53;;;;;;;3.10;1.00;;;20.50;48.70;;;;;;5092962;28;20382;-77
2022/09/27 13:15:27;;;;;;;2.08;0.70;;;20.60;47.90;;;;;;5091653;28;20031;-77
2022/09/27 13:17:55;;;;;;;0.70;0.50;;;20.60;48.30;;;;;;5092730;28;20017;-78
2022/09/27 13:20:30;;;;;;;8.63;0.60;;;20.60;48.70;;;;;;5091258;28;20032;-77
2022/09/27 13:22:57;;;;;;;4.72;0.90;;;20.60;48.20;;;;;;5093204;28;20122;-77
2022/09/27 13:26:02;;;;;;;1.92;0.40;;;20.60;48.10;;;;;;5096877;28;20016;-77
2022/09/27 13:28:30;;;;;;;0.20;0.20;;;20.60;47.60;;;;;;5097070;28;20099;-79